createdAt,value
2022-11-22T00:01:05.633Z,79.50
2022-11-22T00:09:31.213Z,79.32
2022-11-22T00:17:56.780Z,79.39
2022-11-22T00:26:18.364Z,79.43
2022-11-22T00:34:40.154Z,79.36
2022-11-22T00:43:02.602Z,79.22
2022-11-22T00:51:24.162Z,79.35
2022-11-22T00:59:45.693Z,79.55
2022-11-22T01:08:08.324Z,79.53
2022-11-22T01:16:30.014Z,79.39
2022-11-22T01:24:51.797Z,79.56
2022-11-22T01:33:13.468Z,79.53
2022-11-22T01:41:38.637Z,79.53
2022-11-22T01:50:06.653Z,79.45
2022-11-22T01:58:33.475Z,79.33
2022-11-22T02:07:10.887Z,79.62
2022-11-22T02:15:32.643Z,79.42
2022-11-22T02:24:07.624Z,79.57
2022-11-22T02:32:29.520Z,79.66
2022-11-22T02:40:59.499Z,79.52
2022-11-22T02:49:23.593Z,79.57
2022-11-22T02:57:45.207Z,79.58
2022-11-22T03:06:06.802Z,79.57
2022-11-22T03:14:28.364Z,79.55
2022-11-22T03:22:49.849Z,79.70
2022-11-22T03:31:12.020Z,79.74
2022-11-22T03:39:33.499Z,79.69
2022-11-22T03:47:56.456Z,79.69
2022-11-22T03:56:19.507Z,79.68
2022-11-22T04:04:41.399Z,79.39
2022-11-22T04:13:03.012Z,79.64
2022-11-22T04:21:33.389Z,79.82
2022-11-22T04:29:54.921Z,79.67
2022-11-22T04:38:17.608Z,79.53
2022-11-22T04:46:39.145Z,79.61
2022-11-22T04:55:00.674Z,79.53
2022-11-22T05:03:22.899Z,79.76
2022-11-22T05:11:44.413Z,79.78
2022-11-22T05:20:08.615Z,79.69
2022-11-22T05:28:33.138Z,79.68
2022-11-22T05:36:54.828Z,79.60
2022-11-22T05:45:17.638Z,79.74
2022-11-22T05:53:39.998Z,79.78
2022-11-22T06:02:01.746Z,79.60
2022-11-22T06:10:23.511Z,79.80
2022-11-22T06:18:45.601Z,79.75
2022-11-22T06:27:07.106Z,79.66
2022-11-22T06:35:28.573Z,79.91
2022-11-22T06:43:51.685Z,79.79
2022-11-22T06:52:13.426Z,79.70
2022-11-22T07:00:34.993Z,79.61
2022-11-22T07:08:57.190Z,79.65
2022-11-22T07:17:18.924Z,79.82
2022-11-22T07:25:47.852Z,79.80
2022-11-22T07:34:10.031Z,79.71
2022-11-22T07:42:31.562Z,79.85
2022-11-22T07:50:53.007Z,79.96
2022-11-22T07:59:14.518Z,79.97
2022-11-22T08:07:36.026Z,79.95
2022-11-22T08:16:17.489Z,79.78
2022-11-22T08:24:39.504Z,79.88
2022-11-22T08:33:01.879Z,80.07
2022-11-22T08:41:24.860Z,80.08
2022-11-22T08:49:46.913Z,80.16
2022-11-22T08:58:08.965Z,79.97
2022-11-22T09:15:15.325Z,80.15
2022-11-22T09:23:37.921Z,79.84
2022-11-22T09:31:59.436Z,80.21
2022-11-22T09:40:21.159Z,80.16
2022-11-22T09:48:51.426Z,80.01
2022-11-22T09:57:19.276Z,80.19
2022-11-22T10:05:51.235Z,80.41
2022-11-22T10:14:26.666Z,80.23
2022-11-22T10:22:49.451Z,80.19
2022-11-22T10:31:21.611Z,80.37
2022-11-22T10:39:55.895Z,80.14
2022-11-22T10:48:29.602Z,80.31
2022-11-22T10:56:57.748Z,80.29
2022-11-22T11:05:25.915Z,80.20
2022-11-22T11:13:53.940Z,80.19
2022-11-22T11:22:42.787Z,80.15
2022-11-22T11:31:12.688Z,80.40
2022-11-22T11:39:35.179Z,80.27
2022-11-22T11:47:56.789Z,80.37
2022-11-22T11:56:30.603Z,80.25
2022-11-22T12:04:53.576Z,80.10
2022-11-22T12:13:33.130Z,80.33
2022-11-22T12:22:49.425Z,80.28
2022-11-22T12:31:27.214Z,80.30
2022-11-22T12:39:54.010Z,80.15
2022-11-22T12:48:21.609Z,80.10
2022-11-22T12:56:54.151Z,80.37
2022-11-22T13:05:26.643Z,80.44
2022-11-22T13:13:53.974Z,80.23
2022-11-22T13:22:32.479Z,80.20
2022-11-22T13:31:09.649Z,80.24
2022-11-22T13:39:31.464Z,80.28
2022-11-22T13:47:55.425Z,80.11
2022-11-22T13:56:21.339Z,80.34
2022-11-22T14:04:43.606Z,80.34
2022-11-22T14:13:17.077Z,80.15
2022-11-22T14:21:44.746Z,80.17
2022-11-22T14:30:14.973Z,80.15
2022-11-22T14:38:40.155Z,80.29
2022-11-22T14:47:14.049Z,80.20
2022-11-22T14:55:35.688Z,80.13
2022-11-22T15:09:10.582Z,80.14
2022-11-22T15:12:50.858Z,80.38
2022-11-22T16:06:10.537Z,80.29
2022-11-22T16:14:49.389Z,80.21
2022-11-22T16:23:14.638Z,80.11
2022-11-22T16:31:39.164Z,80.28
2022-11-22T16:40:00.697Z,80.13
2022-11-22T16:48:33.824Z,80.16
2022-11-22T16:56:55.624Z,80.16
2022-11-22T17:05:17.653Z,80.19
2022-11-22T17:13:39.196Z,80.23
2022-11-22T17:22:00.912Z,80.35
2022-11-22T17:30:22.589Z,80.32
2022-11-22T17:38:44.298Z,80.41
2022-11-22T17:47:06.461Z,80.30
2022-11-22T17:55:42.617Z,80.21
2022-11-22T18:04:10.213Z,80.39
2022-11-22T18:12:42.072Z,80.30
2022-11-22T18:21:12.775Z,80.10
2022-11-22T18:29:42.857Z,80.21
2022-11-22T18:38:05.925Z,80.11
2022-11-22T18:46:27.561Z,80.33
2022-11-22T18:54:49.324Z,80.35
2022-11-22T19:03:11.405Z,80.15
2022-11-22T19:11:33.015Z,80.16
2022-11-22T19:19:58.378Z,79.96
2022-11-22T19:28:25.997Z,80.21
2022-11-22T19:36:47.520Z,79.99
2022-11-22T19:45:09.411Z,80.23
2022-11-22T19:53:32.165Z,80.23
2022-11-22T20:01:53.707Z,80.08
2022-11-22T20:10:15.319Z,80.12
2022-11-22T20:18:37.717Z,80.16
2022-11-22T20:26:59.304Z,80.28
2022-11-22T20:35:21.852Z,80.21
2022-11-22T20:43:44.374Z,80.27
2022-11-22T20:52:07.617Z,80.28
2022-11-22T21:00:29.154Z,80.32
2022-11-22T21:08:50.970Z,80.21
2022-11-22T21:17:37.579Z,80.20
2022-11-22T21:25:53.938Z,80.31
2022-11-22T21:34:15.440Z,80.45
2022-11-22T21:42:37.424Z,80.31
2022-11-22T21:50:59.139Z,80.35
2022-11-22T21:59:20.692Z,80.42
2022-11-22T22:07:52.717Z,80.52
2022-11-22T22:16:17.908Z,80.45
2022-11-22T22:24:39.590Z,80.46
2022-11-22T22:33:02.441Z,80.38
2022-11-22T22:41:23.981Z,80.28
2022-11-22T22:49:45.714Z,80.29
2022-11-22T22:58:11.626Z,80.54
2022-11-22T23:06:37.572Z,80.33
2022-11-22T23:14:59.155Z,80.61
2022-11-22T23:23:21.007Z,80.56
2022-11-22T23:31:43.669Z,80.64
2022-11-22T23:40:06.437Z,80.43
2022-11-22T23:48:28.493Z,80.52
2022-11-22T23:56:49.954Z,80.48
